createdAt,value
2024-03-29T00:00:59.347Z,2.40
2024-03-29T00:04:04.529Z,2.50
2024-03-29T00:07:10.854Z,2.90
2024-03-29T00:13:19.841Z,2.10
2024-03-29T00:16:26.727Z,1.60
2024-03-29T00:19:31.926Z,1.80
2024-03-29T00:22:37.587Z,1.30
2024-03-29T00:25:42.781Z,1.40
2024-03-29T00:28:48.185Z,1.30
2024-03-29T00:31:53.358Z,1.50
2024-03-29T00:34:59.278Z,1.10
2024-03-29T00:38:05.094Z,1.30
2024-03-29T00:41:10.468Z,1.20
2024-03-29T00:44:16.020Z,1.30
2024-03-29T00:47:21.202Z,1.50
2024-03-29T00:50:26.613Z,1.40
2024-03-29T00:53:31.851Z,1.20
2024-03-29T00:56:37.036Z,0.80
2024-03-29T00:59:44.345Z,1.50
2024-03-29T01:02:49.572Z,1.00
2024-03-29T01:05:54.975Z,1.10
2024-03-29T01:09:00.163Z,1.20
2024-03-29T01:12:05.972Z,1.00
2024-03-29T01:15:11.969Z,1.10
2024-03-29T01:18:17.174Z,1.60
2024-03-29T01:21:22.353Z,1.40
2024-03-29T01:24:27.559Z,1.40
2024-03-29T01:27:32.696Z,1.20
2024-03-29T01:30:37.886Z,1.20
2024-03-29T01:33:43.287Z,1.40
2024-03-29T01:36:48.424Z,1.30
2024-03-29T01:39:53.875Z,1.60
2024-03-29T01:42:59.596Z,1.10
2024-03-29T01:46:07.283Z,0.90
2024-03-29T01:49:13.571Z,1.30
2024-03-29T01:52:21.635Z,1.20
2024-03-29T01:55:27.689Z,0.80
2024-03-29T01:58:33.938Z,0.80
2024-03-29T02:04:44.827Z,0.80
2024-03-29T02:10:59.120Z,1.00
2024-03-29T02:14:07.110Z,0.80
2024-03-29T02:17:12.353Z,0.90
2024-03-29T02:20:33.276Z,1.00
2024-03-29T02:23:47.679Z,0.70
2024-03-29T02:26:53.221Z,0.90
2024-03-29T02:29:58.452Z,0.90
2024-03-29T02:33:03.860Z,0.90
2024-03-29T02:36:10.045Z,1.00
2024-03-29T02:42:19.022Z,0.90
2024-03-29T02:45:24.167Z,1.20
2024-03-29T02:48:29.401Z,0.90
2024-03-29T02:51:34.649Z,1.00
2024-03-29T02:54:39.842Z,1.00
2024-03-29T02:57:45.019Z,1.00
2024-03-29T03:00:50.225Z,1.00
2024-03-29T03:03:55.405Z,0.90
2024-03-29T03:07:20.676Z,0.90
2024-03-29T03:10:43.638Z,0.90
2024-03-29T03:13:48.812Z,0.90
2024-03-29T03:16:54.946Z,1.30
2024-03-29T03:20:00.494Z,1.00
2024-03-29T03:23:05.886Z,1.10
2024-03-29T03:26:11.179Z,1.10
2024-03-29T03:29:16.324Z,1.20
2024-03-29T03:32:21.543Z,0.90
2024-03-29T03:35:26.913Z,1.10
2024-03-29T03:38:33.953Z,1.20
2024-03-29T03:41:39.547Z,1.20
2024-03-29T03:44:44.727Z,1.40
2024-03-29T03:47:50.134Z,1.30
2024-03-29T03:50:55.276Z,1.10
2024-03-29T03:54:00.415Z,1.30
2024-03-29T03:57:06.416Z,1.00
2024-03-29T04:00:16.591Z,1.20
2024-03-29T04:03:23.114Z,1.00
2024-03-29T04:06:28.350Z,1.00
2024-03-29T04:09:33.536Z,1.20
2024-03-29T04:12:39.106Z,1.20
2024-03-29T04:15:44.323Z,1.10
2024-03-29T04:18:49.524Z,1.30
2024-03-29T04:21:55.790Z,1.90
2024-03-29T04:28:05.461Z,1.10
2024-03-29T04:31:10.647Z,1.20
2024-03-29T04:34:15.886Z,1.00
2024-03-29T04:37:21.291Z,1.20
2024-03-29T04:40:26.473Z,1.20
2024-03-29T04:43:32.181Z,1.00
2024-03-29T04:46:37.369Z,1.20
2024-03-29T04:49:42.569Z,1.20
2024-03-29T04:52:47.764Z,1.00
2024-03-29T04:55:58.523Z,1.30
2024-03-29T04:59:03.838Z,1.20
2024-03-29T05:02:09.172Z,1.00
2024-03-29T05:05:15.000Z,1.10
2024-03-29T05:08:22.310Z,1.10
2024-03-29T05:11:27.493Z,1.10
2024-03-29T05:14:32.736Z,0.90
2024-03-29T05:17:38.520Z,0.90
2024-03-29T05:20:48.248Z,0.80
2024-03-29T05:23:54.264Z,0.90
2024-03-29T05:26:59.468Z,1.30
2024-03-29T05:30:05.210Z,1.10
2024-03-29T05:33:10.402Z,1.20
2024-03-29T05:36:15.800Z,0.90
2024-03-29T05:39:20.993Z,1.10
2024-03-29T05:42:26.336Z,1.10
2024-03-29T05:45:33.072Z,0.90
2024-03-29T05:48:40.213Z,0.90
2024-03-29T05:51:45.445Z,1.00
2024-03-29T05:54:51.002Z,1.10
2024-03-29T05:57:56.169Z,0.90
2024-03-29T06:01:01.387Z,0.80
2024-03-29T06:04:14.717Z,0.80
2024-03-29T06:07:19.895Z,0.90
2024-03-29T06:10:25.472Z,0.90
2024-03-29T06:13:51.632Z,1.10
2024-03-29T06:17:14.546Z,0.90
2024-03-29T06:20:19.768Z,0.90
2024-03-29T06:23:25.079Z,1.00
2024-03-29T06:26:30.262Z,1.10
2024-03-29T06:29:35.665Z,1.00
2024-03-29T06:32:40.908Z,1.00
2024-03-29T06:35:54.665Z,1.20
2024-03-29T06:38:59.893Z,1.10
2024-03-29T06:42:08.057Z,1.20
2024-03-29T06:45:13.693Z,1.00
2024-03-29T06:48:18.898Z,0.90
2024-03-29T06:51:24.126Z,0.90
2024-03-29T06:54:29.322Z,1.00
2024-03-29T06:57:36.875Z,1.00
2024-03-29T07:00:42.059Z,0.90
2024-03-29T07:03:47.301Z,1.00
2024-03-29T07:06:52.959Z,1.10
2024-03-29T07:09:58.517Z,0.90
2024-03-29T07:13:03.743Z,0.90
2024-03-29T07:16:09.888Z,1.00
2024-03-29T07:19:17.066Z,0.90
2024-03-29T07:22:31.750Z,1.00
2024-03-29T07:25:42.639Z,1.30
2024-03-29T07:28:47.884Z,1.60
2024-03-29T07:31:53.301Z,1.40
2024-03-29T07:34:59.415Z,1.10
2024-03-29T07:38:04.645Z,1.40
2024-03-29T07:41:10.887Z,1.30
2024-03-29T07:44:16.294Z,1.70
2024-03-29T07:47:23.215Z,1.20
2024-03-29T07:50:28.425Z,1.20
2024-03-29T07:53:33.670Z,1.30
2024-03-29T07:56:38.863Z,0.80
2024-03-29T07:59:44.258Z,1.80
2024-03-29T08:02:49.447Z,2.20
2024-03-29T08:06:01.607Z,1.90
2024-03-29T08:09:07.235Z,1.20
2024-03-29T08:12:12.766Z,1.80
2024-03-29T08:15:19.293Z,1.30
2024-03-29T08:18:24.520Z,1.40
2024-03-29T08:21:30.889Z,0.90
2024-03-29T08:24:36.069Z,1.50
2024-03-29T08:27:41.273Z,1.00
2024-03-29T08:30:46.763Z,1.20
2024-03-29T08:34:01.327Z,1.20
2024-03-29T08:37:08.449Z,0.70
2024-03-29T08:40:15.058Z,1.30
2024-03-29T08:43:20.227Z,1.10
2024-03-29T08:46:25.656Z,1.20
2024-03-29T08:49:30.876Z,0.90
2024-03-29T08:52:36.136Z,1.20
2024-03-29T08:55:41.871Z,1.00
2024-03-29T08:58:48.037Z,1.10
2024-03-29T09:01:54.224Z,1.80
2024-03-29T09:04:59.442Z,1.30
2024-03-29T09:08:05.002Z,1.20
2024-03-29T09:11:11.875Z,1.10
2024-03-29T09:14:17.832Z,0.80
2024-03-29T09:17:25.597Z,1.10
2024-03-29T09:20:30.830Z,1.00
2024-03-29T09:23:36.021Z,1.00
2024-03-29T09:26:44.060Z,1.00
2024-03-29T09:29:52.451Z,0.80
2024-03-29T09:32:57.656Z,0.80
2024-03-29T09:36:04.017Z,0.60
2024-03-29T09:39:09.764Z,0.60
2024-03-29T09:42:19.131Z,1.20
2024-03-29T09:45:25.586Z,0.50
2024-03-29T09:48:37.515Z,1.00
2024-03-29T09:51:43.742Z,0.70
2024-03-29T09:54:49.027Z,1.30
2024-03-29T09:57:54.488Z,0.70
2024-03-29T10:01:00.126Z,0.70
2024-03-29T10:04:07.943Z,0.50
2024-03-29T10:07:16.199Z,0.90
2024-03-29T10:10:21.599Z,0.50
2024-03-29T10:13:27.286Z,0.40
2024-03-29T10:16:35.355Z,0.70
2024-03-29T10:19:40.540Z,0.90
2024-03-29T10:22:47.068Z,0.70
2024-03-29T10:25:52.254Z,0.60
2024-03-29T10:28:58.029Z,0.60
2024-03-29T10:32:04.231Z,0.50
2024-03-29T10:35:11.149Z,0.80
2024-03-29T10:38:16.374Z,0.70
2024-03-29T10:41:22.515Z,0.50
2024-03-29T10:44:28.989Z,0.70
2024-03-29T10:47:36.034Z,1.10
2024-03-29T10:50:43.373Z,0.60
2024-03-29T10:53:52.591Z,0.70
2024-03-29T10:57:08.727Z,0.60
2024-03-29T11:00:21.522Z,0.80
2024-03-29T11:03:34.854Z,0.50
2024-03-29T11:06:41.938Z,0.70
2024-03-29T11:09:52.417Z,0.90
2024-03-29T11:13:20.645Z,0.50
2024-03-29T11:16:26.614Z,0.50
2024-03-29T11:19:33.381Z,0.70
2024-03-29T11:22:39.245Z,0.60
2024-03-29T11:28:53.430Z,0.70
2024-03-29T11:32:01.667Z,0.50
2024-03-29T11:35:15.817Z,0.50
2024-03-29T11:38:21.894Z,0.50
2024-03-29T11:41:30.513Z,0.80
2024-03-29T11:44:36.916Z,0.60
2024-03-29T11:47:43.443Z,0.60
2024-03-29T11:50:49.137Z,0.70
2024-03-29T11:53:56.020Z,0.50
2024-03-29T11:57:01.951Z,0.70
2024-03-29T12:03:11.912Z,0.50
2024-03-29T12:06:19.766Z,0.70
2024-03-29T12:09:24.964Z,0.60
2024-03-29T12:12:32.397Z,0.70
2024-03-29T12:15:38.007Z,0.60
2024-03-29T12:18:43.348Z,0.70
2024-03-29T12:21:48.796Z,0.60
2024-03-29T12:24:53.975Z,0.60
2024-03-29T12:28:00.061Z,0.70
2024-03-29T12:31:05.444Z,0.70
2024-03-29T12:34:10.630Z,0.70
2024-03-29T12:37:15.828Z,0.70
2024-03-29T12:40:23.424Z,0.40
2024-03-29T12:43:30.158Z,0.50
2024-03-29T12:46:35.138Z,0.60
2024-03-29T12:49:45.370Z,0.60
2024-03-29T12:52:51.358Z,0.60
2024-03-29T12:55:56.544Z,0.50
2024-03-29T12:59:01.781Z,0.60
2024-03-29T13:02:07.189Z,0.70
2024-03-29T13:05:12.840Z,0.40
2024-03-29T13:08:18.621Z,0.50
2024-03-29T13:14:27.994Z,0.50
2024-03-29T13:17:33.506Z,0.70
2024-03-29T13:20:42.125Z,0.80
2024-03-29T13:23:47.309Z,0.70
2024-03-29T13:26:52.611Z,1.10
2024-03-29T13:29:57.794Z,1.30
2024-03-29T13:33:03.104Z,0.70
2024-03-29T13:36:09.777Z,1.00
2024-03-29T13:39:16.346Z,0.80
2024-03-29T13:42:22.307Z,0.90
2024-03-29T13:45:28.946Z,0.70
2024-03-29T13:48:34.169Z,0.90
2024-03-29T13:51:39.405Z,0.90
2024-03-29T13:54:48.150Z,1.00
2024-03-29T13:57:53.477Z,0.60
2024-03-29T14:01:00.988Z,1.10
2024-03-29T14:04:06.391Z,1.60
2024-03-29T14:07:14.529Z,3.20
2024-03-29T14:10:20.411Z,8.10
2024-03-29T14:16:29.950Z,1.40
2024-03-29T14:19:35.768Z,1.40
2024-03-29T14:22:41.623Z,1.00
2024-03-29T14:25:47.276Z,1.10
2024-03-29T14:28:52.749Z,1.00
2024-03-29T14:31:58.069Z,0.80
2024-03-29T14:35:03.419Z,1.10
2024-03-29T14:38:09.164Z,1.10
2024-03-29T14:41:14.348Z,1.00
2024-03-29T14:44:21.694Z,1.00
2024-03-29T14:47:26.864Z,1.30
2024-03-29T14:50:32.104Z,1.10
2024-03-29T14:53:37.327Z,1.10
2024-03-29T14:56:42.669Z,1.20
2024-03-29T14:59:47.856Z,1.40
2024-03-29T15:02:53.884Z,1.30
2024-03-29T15:05:59.423Z,1.30
2024-03-29T15:09:05.356Z,0.90
2024-03-29T15:12:11.049Z,1.20
2024-03-29T15:15:17.323Z,1.60
2024-03-29T15:18:24.663Z,1.50
2024-03-29T15:21:32.598Z,1.20
2024-03-29T15:24:37.781Z,1.50
2024-03-29T15:28:00.699Z,1.50
2024-03-29T15:31:13.049Z,1.60
2024-03-29T15:34:18.454Z,1.60
2024-03-29T15:37:26.301Z,1.30
2024-03-29T15:40:31.503Z,1.20
2024-03-29T15:43:37.503Z,1.30
2024-03-29T15:49:47.142Z,1.30
2024-03-29T15:52:52.385Z,1.30
2024-03-29T15:55:59.456Z,1.10
2024-03-29T15:59:05.106Z,1.30
2024-03-29T16:02:10.531Z,1.60
2024-03-29T16:05:16.108Z,1.10
2024-03-29T16:08:21.306Z,1.10
2024-03-29T16:11:35.907Z,1.20
2024-03-29T16:14:41.151Z,1.50
2024-03-29T16:17:46.474Z,1.80
2024-03-29T16:20:52.149Z,1.50
2024-03-29T16:23:57.484Z,1.90
2024-03-29T16:27:02.674Z,2.40
2024-03-29T16:30:10.059Z,1.90
2024-03-29T16:33:15.475Z,3.50
2024-03-29T16:36:20.757Z,2.20
2024-03-29T16:39:26.129Z,3.90
2024-03-29T16:42:31.345Z,3.60
2024-03-29T16:45:37.475Z,5.40
2024-03-29T16:48:43.230Z,3.20
2024-03-29T16:51:48.509Z,3.50
2024-03-29T16:54:53.712Z,8.60
2024-03-29T16:57:59.060Z,14.70
2024-03-29T17:01:04.400Z,5.20
2024-03-29T17:04:09.744Z,3.00
2024-03-29T17:07:15.231Z,5.00
2024-03-29T17:10:20.547Z,3.90
2024-03-29T17:13:25.884Z,2.40
2024-03-29T17:16:31.070Z,3.30
2024-03-29T17:19:37.456Z,3.90
2024-03-29T17:22:42.644Z,3.00
2024-03-29T17:25:47.826Z,2.70
2024-03-29T17:28:53.026Z,2.50
2024-03-29T17:32:09.218Z,2.70
2024-03-29T17:35:17.232Z,2.10
2024-03-29T17:38:22.415Z,2.50
2024-03-29T17:41:28.129Z,1.90
2024-03-29T17:44:33.423Z,1.90
2024-03-29T17:47:38.687Z,47.50
2024-03-29T17:50:43.998Z,28.80
2024-03-29T17:53:49.204Z,6.80
2024-03-29T17:56:54.382Z,6.30
2024-03-29T18:00:00.708Z,4.00
2024-03-29T18:03:06.838Z,4.50
2024-03-29T18:06:12.585Z,3.50
2024-03-29T18:09:17.807Z,3.90
2024-03-29T18:12:23.018Z,3.70
2024-03-29T18:15:28.254Z,2.90
2024-03-29T18:18:33.845Z,3.00
2024-03-29T18:21:40.993Z,3.00
2024-03-29T18:24:46.342Z,4.60
2024-03-29T18:27:51.680Z,9.30
2024-03-29T18:31:00.417Z,7.40
2024-03-29T18:34:05.651Z,6.30
2024-03-29T18:37:10.834Z,9.20
2024-03-29T18:40:16.800Z,11.90
2024-03-29T18:43:22.270Z,10.40
2024-03-29T18:46:27.498Z,11.90
2024-03-29T18:49:32.688Z,11.40
2024-03-29T18:52:37.929Z,11.40
2024-03-29T18:55:43.283Z,11.20
2024-03-29T18:58:48.627Z,11.60
2024-03-29T19:01:53.900Z,10.50
2024-03-29T19:04:59.104Z,10.10
2024-03-29T19:08:04.554Z,9.40
2024-03-29T19:11:09.740Z,10.30
2024-03-29T19:14:15.037Z,17.10
2024-03-29T19:17:20.215Z,18.20
2024-03-29T19:20:25.423Z,16.20
2024-03-29T19:23:32.302Z,13.80
2024-03-29T19:26:37.522Z,9.50
2024-03-29T19:29:42.693Z,6.80
2024-03-29T19:32:59.051Z,9.30
2024-03-29T19:36:04.435Z,12.10
2024-03-29T19:39:11.584Z,13.40
2024-03-29T19:42:16.813Z,10.50
2024-03-29T19:45:22.109Z,12.90
2024-03-29T19:48:27.291Z,10.20
2024-03-29T19:51:32.596Z,16.70
2024-03-29T19:54:37.792Z,15.90
2024-03-29T19:57:43.018Z,12.10
2024-03-29T20:00:48.222Z,13.20
2024-03-29T20:03:53.669Z,14.60
2024-03-29T20:06:58.853Z,14.00
2024-03-29T20:10:04.672Z,13.30
2024-03-29T20:13:10.493Z,13.80
2024-03-29T20:16:15.872Z,13.10
2024-03-29T20:19:22.751Z,13.40
2024-03-29T20:22:27.933Z,12.90
2024-03-29T20:25:33.549Z,12.80
2024-03-29T20:28:38.725Z,12.30
2024-03-29T20:31:43.898Z,13.50
2024-03-29T20:34:49.069Z,12.60
2024-03-29T20:37:56.630Z,12.80
2024-03-29T20:41:01.809Z,13.50
2024-03-29T20:44:07.415Z,12.50
2024-03-29T20:47:12.822Z,12.90
2024-03-29T20:50:18.157Z,13.90
2024-03-29T20:53:23.498Z,12.50
2024-03-29T20:56:28.736Z,11.20
2024-03-29T20:59:35.414Z,13.80
2024-03-29T21:02:58.192Z,14.90
2024-03-29T21:06:03.349Z,16.10
2024-03-29T21:09:08.654Z,16.70
2024-03-29T21:12:14.120Z,16.10
2024-03-29T21:15:19.552Z,13.70
2024-03-29T21:18:24.895Z,15.10
2024-03-29T21:21:32.705Z,14.10
2024-03-29T21:24:38.199Z,16.80
2024-03-29T21:27:44.701Z,16.50
2024-03-29T21:30:51.804Z,15.80
2024-03-29T21:33:57.022Z,15.70
2024-03-29T21:37:02.236Z,15.40
2024-03-29T21:40:10.895Z,15.70
2024-03-29T21:43:17.896Z,16.60
2024-03-29T21:46:23.082Z,14.70
2024-03-29T21:49:28.281Z,15.70
2024-03-29T21:52:33.774Z,14.20
2024-03-29T21:55:38.971Z,14.00
2024-03-29T21:58:49.245Z,13.50
2024-03-29T22:02:00.309Z,13.70
2024-03-29T22:05:07.139Z,12.60
2024-03-29T22:08:12.337Z,13.90
2024-03-29T22:11:17.692Z,15.70
2024-03-29T22:14:22.923Z,14.60
2024-03-29T22:17:28.128Z,14.40
2024-03-29T22:20:33.590Z,12.80
2024-03-29T22:23:38.853Z,12.80
2024-03-29T22:26:44.069Z,12.90
2024-03-29T22:29:49.914Z,12.60
2024-03-29T22:32:56.631Z,12.50
2024-03-29T22:36:02.001Z,11.20
2024-03-29T22:39:08.346Z,12.50
2024-03-29T22:42:13.555Z,11.20
2024-03-29T22:45:19.262Z,11.00
2024-03-29T22:48:24.597Z,11.50
2024-03-29T22:51:30.110Z,11.10
2024-03-29T22:54:35.574Z,9.50
2024-03-29T22:57:40.726Z,6.60
2024-03-29T23:00:48.177Z,6.80
2024-03-29T23:03:53.470Z,6.90
2024-03-29T23:06:58.645Z,6.20
2024-03-29T23:10:04.057Z,6.70
2024-03-29T23:13:09.232Z,8.50
2024-03-29T23:16:14.435Z,10.40
2024-03-29T23:19:20.084Z,9.70
2024-03-29T23:22:25.431Z,9.40
2024-03-29T23:25:30.795Z,9.90
2024-03-29T23:28:38.078Z,6.70
2024-03-29T23:31:43.209Z,8.10
2024-03-29T23:34:48.655Z,6.70
2024-03-29T23:37:54.614Z,6.70
2024-03-29T23:41:02.387Z,7.60
2024-03-29T23:44:08.094Z,7.40
2024-03-29T23:47:13.414Z,6.80
2024-03-29T23:50:18.788Z,7.40
2024-03-29T23:53:42.586Z,6.50
2024-03-29T23:56:47.786Z,6.70
2024-03-29T23:59:55.837Z,7.00
